Forest Ranch, California
Current Conditions -  °F | °C
As of 3:29 PM on Friday 19 Dec 2014 (Local Time) from KOVE Reporting Station
Light Rain Light Rain  
Wind Chill: 53°   Ceiling: 1400
Heat Index: 53°   Visibility: 3mi
Dew Point: 50°   Wind: 8mph
Humidity: 89%   Direction: 160°SSE
Pressure: 30.17"   Gusts: NA
Location:  39.88°N, 121.67°W
Report Text: KOVE 192329Z AUTO 16007KT 3SM -RA BR OVC014 12/10 A3017 RMK AO2 RAB2255 P0002 T01170100
Loading
Personal Weather Stations






























Interactive Weather Map New forecast layout! Learn more

10-Day Weather Forecast

Advertisements
Track Severe Weather on mobile